Terminal Aerodrome Forecast
Issued by NWS Lake Charles, LA

Home | Current Version | Previous Version | Text Only | Print | Product List | Glossary On
Versions: 1 2 3 4 5 6 7 8 9 10 11 12 13 14 15 16 17
000
FTUS44 KLCH 260520
TAFBPT
TAF
KBPT 260520Z 2606/2706 33010KT P6SM TSRA OVC025CB
      TEMPO 2606/2607 35016G24KT 1SM +TSRA BKN015CB OVC060
     FM260900 14006KT P6SM -RA BKN025
     FM261200 13006KT P6SM BKN025
     FM261800 18012KT P6SM VCTS BKN040CB=

USA.gov is the U.S. government's official web portal to all federal, state and local government web resources and services.